Bucketlist — WDG2966 — position and weather

sailwx.info

Track history (hours):
 
Tides and Currents Weather Stations Pressure Air Temp Water Temp Dewpoint Dewpoint Depression Visibility Wind Speed Wind Dir Waves Ship Positions

Bucketlist

Owner: Fulginiti, Linda M, Jasper, OR. More information available from US FCC via Universal Licensing System and Coast Guard Vessel Documentation Center.

Last reported at 2017-May-28 16:51 UTC. Time now 2017-Aug-21 02:37 UTC.
Position N 48°25' W 122°55'.
Warning: this ship's position is months out of date.

Length 10 m.

Type: Pleasure craft. MMSI: 367521080.

Date/timePositionNaut miles runAvg speedWind from/ knotsBaromVisibWave heightAir tempDewpointWater temp
2017-May-28 16:51N 48°25' W 122°55'3 9.5
2017-May-28 16:30N 48°28' W 122°57'4 8.8
2017-May-28 16:00N 48°32' W 122°59'1 2.1
2017-May-28 15:29N 48°32' W 123°01'0 0.0
2017-May-28 00:43N 48°32' W 123°01'0 0.0
2017-May-28 00:29N 48°32' W 123°01'0 0.3
2017-May-27 23:52N 48°32' W 123°01'6 1.0
2017-May-27 18:01N 48°38' W 123°02'0 5.5
2017-May-27 17:56N 48°37' W 123°02'3 6.4
2017-May-27 17:25N 48°34' W 123°00'2 0.1
2017-May-26 23:13N 48°32' W 123°01'0 0.0
2017-May-26 22:55N 48°32' W 123°01'0 0.0
2017-May-26 22:13N 48°32' W 123°01'0 0.0
2017-May-26 21:55N 48°32' W 123°01'0 0.0
2017-May-26 21:04N 48°32' W 123°01'0 0.0
2017-May-26 21:00N 48°32' W 123°01'3 6.0
2017-May-26 20:30N 48°31' W 122°57'  
Track history (hours):
 
Tides and Currents Weather Stations Pressure Air Temp Water Temp Dewpoint Dewpoint Depression Visibility Wind Speed Wind Dir Waves Ship Positions

Bucketlist

Owner: Fulginiti, Linda M, Jasper, OR. More information available from US FCC via Universal Licensing System and Coast Guard Vessel Documentation Center.

Last reported at 2017-May-28 16:51 UTC. Time now 2017-Aug-21 02:37 UTC.
Position N 48°25' W 122°55'.
Warning: this ship's position is months out of date.

Length 10 m.

Type: Pleasure craft. MMSI: 367521080.

Date/timePositionNaut miles runAvg speedWind from/ knotsBaromVisibWave heightAir tempDewpointWater temp
2017-May-28 16:51N 48°25' W 122°55'3 9.5
2017-May-28 16:30N 48°28' W 122°57'4 8.8
2017-May-28 16:00N 48°32' W 122°59'1 2.1
2017-May-28 15:29N 48°32' W 123°01'0 0.0
2017-May-28 00:43N 48°32' W 123°01'0 0.0
2017-May-28 00:29N 48°32' W 123°01'0 0.3
2017-May-27 23:52N 48°32' W 123°01'6 1.0
2017-May-27 18:01N 48°38' W 123°02'0 5.5
2017-May-27 17:56N 48°37' W 123°02'3 6.4
2017-May-27 17:25N 48°34' W 123°00'2 0.1
2017-May-26 23:13N 48°32' W 123°01'0 0.0
2017-May-26 22:55N 48°32' W 123°01'0 0.0
2017-May-26 22:13N 48°32' W 123°01'0 0.0
2017-May-26 21:55N 48°32' W 123°01'0 0.0
2017-May-26 21:04N 48°32' W 123°01'0 0.0
2017-May-26 21:00N 48°32' W 123°01'3 6.0
2017-May-26 20:30N 48°31' W 122°57'  

Dump ship's entire track history